sensor_id;sensor_type;location;lat;lon;timestamp;P1;durP1;ratioP1;P2;durP2;ratioP2
52494;SDS011;38405;53.212;5.660;2024-03-22T00:00:10;76.88;;;38.80;;
52494;SDS011;38405;53.212;5.660;2024-03-22T00:02:37;82.20;;;39.75;;
52494;SDS011;38405;53.212;5.660;2024-03-22T00:05:03;78.78;;;38.47;;
52494;SDS011;38405;53.212;5.660;2024-03-22T00:07:29;84.35;;;40.47;;
52494;SDS011;38405;53.212;5.660;2024-03-22T00:09:54;82.35;;;39.67;;
52494;SDS011;38405;53.212;5.660;2024-03-22T00:12:20;78.68;;;40.25;;
52494;SDS011;38405;53.212;5.660;2024-03-22T00:14:46;82.85;;;40.42;;
52494;SDS011;38405;53.212;5.660;2024-03-22T00:17:11;83.40;;;40.53;;
52494;SDS011;38405;53.212;5.660;2024-03-22T00:19:37;91.72;;;40.95;;
52494;SDS011;38405;53.212;5.660;2024-03-22T00:22:03;90.45;;;40.25;;
52494;SDS011;38405;53.212;5.660;2024-03-22T00:24:28;88.32;;;39.65;;
52494;SDS011;38405;53.212;5.660;2024-03-22T00:26:54;86.28;;;40.75;;
52494;SDS011;38405;53.212;5.660;2024-03-22T00:29:20;91.82;;;41.05;;
52494;SDS011;38405;53.212;5.660;2024-03-22T00:31:45;87.00;;;39.90;;
52494;SDS011;38405;53.212;5.660;2024-03-22T00:34:11;91.32;;;40.67;;
52494;SDS011;38405;53.212;5.660;2024-03-22T00:36:37;85.53;;;40.30;;
52494;SDS011;38405;53.212;5.660;2024-03-22T00:39:02;99.40;;;41.00;;
52494;SDS011;38405;53.212;5.660;2024-03-22T00:41:28;91.90;;;42.13;;
52494;SDS011;38405;53.212;5.660;2024-03-22T00:43:54;97.55;;;40.92;;
52494;SDS011;38405;53.212;5.660;2024-03-22T00:46:19;100.32;;;40.97;;
52494;SDS011;38405;53.212;5.660;2024-03-22T00:48:45;99.07;;;41.13;;
52494;SDS011;38405;53.212;5.660;2024-03-22T00:51:11;95.65;;;40.83;;
52494;SDS011;38405;53.212;5.660;2024-03-22T00:53:36;88.90;;;39.67;;
52494;SDS011;38405;53.212;5.660;2024-03-22T00:56:02;103.97;;;39.92;;
52494;SDS011;38405;53.212;5.660;2024-03-22T00:58:28;94.85;;;41.47;;
52494;SDS011;38405;53.212;5.660;2024-03-22T01:00:54;102.63;;;41.85;;
52494;SDS011;38405;53.212;5.660;2024-03-22T01:03:21;94.30;;;41.97;;
52494;SDS011;38405;53.212;5.660;2024-03-22T01:05:47;99.50;;;41.78;;
52494;SDS011;38405;53.212;5.660;2024-03-22T01:08:12;95.55;;;40.67;;
52494;SDS011;38405;53.212;5.660;2024-03-22T01:10:38;97.35;;;39.83;;
52494;SDS011;38405;53.212;5.660;2024-03-22T01:13:04;95.35;;;39.28;;
52494;SDS011;38405;53.212;5.660;2024-03-22T01:15:29;88.28;;;39.70;;
52494;SDS011;38405;53.212;5.660;2024-03-22T01:17:55;91.82;;;40.50;;
52494;SDS011;38405;53.212;5.660;2024-03-22T01:20:21;95.07;;;40.63;;
52494;SDS011;38405;53.212;5.660;2024-03-22T01:22:46;98.38;;;40.75;;
52494;SDS011;38405;53.212;5.660;2024-03-22T01:25:12;84.72;;;40.28;;
52494;SDS011;38405;53.212;5.660;2024-03-22T01:27:38;88.18;;;40.25;;
52494;SDS011;38405;53.212;5.660;2024-03-22T01:30:03;93.25;;;39.97;;
52494;SDS011;38405;53.212;5.660;2024-03-22T01:32:30;98.85;;;40.58;;
52494;SDS011;38405;53.212;5.660;2024-03-22T01:34:56;94.68;;;41.55;;
52494;SDS011;38405;53.212;5.660;2024-03-22T01:37:22;93.25;;;39.85;;
52494;SDS011;38405;53.212;5.660;2024-03-22T01:39:48;85.78;;;39.22;;
52494;SDS011;38405;53.212;5.660;2024-03-22T01:42:13;82.75;;;37.10;;
52494;SDS011;38405;53.212;5.660;2024-03-22T01:44:39;81.72;;;36.90;;
52494;SDS011;38405;53.212;5.660;2024-03-22T01:47:05;73.30;;;34.05;;
52494;SDS011;38405;53.212;5.660;2024-03-22T01:49:30;80.95;;;36.35;;
52494;SDS011;38405;53.212;5.660;2024-03-22T01:51:56;84.85;;;35.78;;
52494;SDS011;38405;53.212;5.660;2024-03-22T01:54:22;77.85;;;36.45;;
52494;SDS011;38405;53.212;5.660;2024-03-22T01:56:48;79.97;;;35.40;;
52494;SDS011;38405;53.212;5.660;2024-03-22T01:59:13;84.68;;;35.95;;
52494;SDS011;38405;53.212;5.660;2024-03-22T02:01:40;80.85;;;35.50;;
52494;SDS011;38405;53.212;5.660;2024-03-22T02:04:06;90.40;;;37.20;;
52494;SDS011;38405;53.212;5.660;2024-03-22T02:06:31;84.70;;;35.88;;
52494;SDS011;38405;53.212;5.660;2024-03-22T02:08:58;88.72;;;36.00;;
52494;SDS011;38405;53.212;5.660;2024-03-22T02:11:24;83.10;;;37.35;;
52494;SDS011;38405;53.212;5.660;2024-03-22T02:13:51;79.40;;;36.33;;
52494;SDS011;38405;53.212;5.660;2024-03-22T02:16:17;80.93;;;34.72;;
52494;SDS011;38405;53.212;5.660;2024-03-22T02:18:42;82.25;;;35.10;;
52494;SDS011;38405;53.212;5.660;2024-03-22T02:21:09;81.03;;;35.33;;
52494;SDS011;38405;53.212;5.660;2024-03-22T02:23:36;84.65;;;33.17;;
52494;SDS011;38405;53.212;5.660;2024-03-22T02:26:03;88.30;;;35.80;;
52494;SDS011;38405;53.212;5.660;2024-03-22T02:28:29;84.97;;;36.05;;
52494;SDS011;38405;53.212;5.660;2024-03-22T02:30:57;78.72;;;33.38;;
52494;SDS011;38405;53.212;5.660;2024-03-22T02:33:22;77.55;;;34.58;;
52494;SDS011;38405;53.212;5.660;2024-03-22T02:35:49;79.30;;;33.28;;
52494;SDS011;38405;53.212;5.660;2024-03-22T02:38:15;79.20;;;33.00;;
52494;SDS011;38405;53.212;5.660;2024-03-22T02:40:44;88.13;;;35.40;;
52494;SDS011;38405;53.212;5.660;2024-03-22T02:43:11;81.97;;;34.13;;
52494;SDS011;38405;53.212;5.660;2024-03-22T02:45:37;83.78;;;33.03;;
52494;SDS011;38405;53.212;5.660;2024-03-22T02:48:03;86.95;;;35.05;;
52494;SDS011;38405;53.212;5.660;2024-03-22T02:50:33;75.82;;;32.78;;
52494;SDS011;38405;53.212;5.660;2024-03-22T02:52:59;79.35;;;32.88;;
52494;SDS011;38405;53.212;5.660;2024-03-22T02:55:25;78.05;;;32.47;;
52494;SDS011;38405;53.212;5.660;2024-03-22T02:57:50;86.03;;;34.20;;
52494;SDS011;38405;53.212;5.660;2024-03-22T03:00:16;84.93;;;33.47;;
52494;SDS011;38405;53.212;5.660;2024-03-22T03:02:43;90.22;;;35.00;;
52494;SDS011;38405;53.212;5.660;2024-03-22T03:05:09;81.18;;;33.30;;
52494;SDS011;38405;53.212;5.660;2024-03-22T03:07:35;78.22;;;31.70;;
52494;SDS011;38405;53.212;5.660;2024-03-22T03:10:00;81.85;;;32.15;;
52494;SDS011;38405;53.212;5.660;2024-03-22T03:12:26;79.57;;;33.50;;
52494;SDS011;38405;53.212;5.660;2024-03-22T03:14:52;85.32;;;33.92;;
52494;SDS011;38405;53.212;5.660;2024-03-22T03:17:17;74.13;;;30.30;;
52494;SDS011;38405;53.212;5.660;2024-03-22T03:19:43;78.57;;;32.55;;
52494;SDS011;38405;53.212;5.660;2024-03-22T03:22:09;77.10;;;30.00;;
52494;SDS011;38405;53.212;5.660;2024-03-22T03:24:35;84.65;;;30.88;;
52494;SDS011;38405;53.212;5.660;2024-03-22T03:27:01;75.82;;;31.17;;
52494;SDS011;38405;53.212;5.660;2024-03-22T03:29:28;70.07;;;31.23;;
52494;SDS011;38405;53.212;5.660;2024-03-22T03:31:53;76.60;;;31.63;;
52494;SDS011;38405;53.212;5.660;2024-03-22T03:34:19;77.85;;;28.55;;
52494;SDS011;38405;53.212;5.660;2024-03-22T03:36:45;75.55;;;30.23;;
52494;SDS011;38405;53.212;5.660;2024-03-22T03:39:11;77.93;;;28.85;;
52494;SDS011;38405;53.212;5.660;2024-03-22T03:41:37;66.95;;;27.58;;
52494;SDS011;38405;53.212;5.660;2024-03-22T03:44:03;74.38;;;28.50;;
52494;SDS011;38405;53.212;5.660;2024-03-22T03:46:28;71.00;;;27.50;;
52494;SDS011;38405;53.212;5.660;2024-03-22T03:48:54;70.63;;;26.98;;
52494;SDS011;38405;53.212;5.660;2024-03-22T03:51:19;73.43;;;28.10;;
52494;SDS011;38405;53.212;5.660;2024-03-22T03:53:45;64.88;;;26.98;;
52494;SDS011;38405;53.212;5.660;2024-03-22T03:56:11;76.95;;;25.45;;
52494;SDS011;38405;53.212;5.660;2024-03-22T03:58:36;68.35;;;24.85;;
52494;SDS011;38405;53.212;5.660;2024-03-22T04:01:06;63.22;;;24.77;;
52494;SDS011;38405;53.212;5.660;2024-03-22T04:03:32;61.90;;;23.73;;
52494;SDS011;38405;53.212;5.660;2024-03-22T04:05:57;70.97;;;25.33;;
52494;SDS011;38405;53.212;5.660;2024-03-22T04:08:24;65.43;;;25.13;;
52494;SDS011;38405;53.212;5.660;2024-03-22T04:10:54;69.40;;;25.13;;
52494;SDS011;38405;53.212;5.660;2024-03-22T04:13:24;60.75;;;23.45;;
52494;SDS011;38405;53.212;5.660;2024-03-22T04:15:50;80.35;;;25.50;;
52494;SDS011;38405;53.212;5.660;2024-03-22T04:18:15;67.78;;;25.08;;
52494;SDS011;38405;53.212;5.660;2024-03-22T04:20:41;65.10;;;23.83;;
52494;SDS011;38405;53.212;5.660;2024-03-22T04:23:08;61.53;;;23.08;;
52494;SDS011;38405;53.212;5.660;2024-03-22T04:25:34;61.95;;;23.20;;
52494;SDS011;38405;53.212;5.660;2024-03-22T04:28:00;60.80;;;21.75;;
52494;SDS011;38405;53.212;5.660;2024-03-22T04:30:26;59.88;;;20.77;;
52494;SDS011;38405;53.212;5.660;2024-03-22T04:32:51;63.75;;;21.60;;
52494;SDS011;38405;53.212;5.660;2024-03-22T04:35:17;54.88;;;20.42;;
52494;SDS011;38405;53.212;5.660;2024-03-22T04:37:42;51.97;;;19.95;;
52494;SDS011;38405;53.212;5.660;2024-03-22T04:40:08;55.60;;;20.45;;
52494;SDS011;38405;53.212;5.660;2024-03-22T04:42:37;58.58;;;20.45;;
52494;SDS011;38405;53.212;5.660;2024-03-22T04:45:02;48.70;;;17.92;;
52494;SDS011;38405;53.212;5.660;2024-03-22T04:47:28;72.53;;;20.10;;
52494;SDS011;38405;53.212;5.660;2024-03-22T04:49:54;53.83;;;18.08;;
52494;SDS011;38405;53.212;5.660;2024-03-22T04:52:20;72.55;;;20.67;;
52494;SDS011;38405;53.212;5.660;2024-03-22T04:54:45;49.88;;;17.90;;
52494;SDS011;38405;53.212;5.660;2024-03-22T04:57:12;60.10;;;19.52;;
52494;SDS011;38405;53.212;5.660;2024-03-22T04:59:38;51.83;;;17.67;;
52494;SDS011;38405;53.212;5.660;2024-03-22T05:02:03;54.67;;;18.17;;
52494;SDS011;38405;53.212;5.660;2024-03-22T05:04:29;53.20;;;17.55;;
52494;SDS011;38405;53.212;5.660;2024-03-22T05:06:55;44.80;;;18.60;;
52494;SDS011;38405;53.212;5.660;2024-03-22T05:09:20;50.53;;;18.85;;
52494;SDS011;38405;53.212;5.660;2024-03-22T05:11:46;51.00;;;18.33;;
52494;SDS011;38405;53.212;5.660;2024-03-22T05:14:15;55.58;;;19.35;;
52494;SDS011;38405;53.212;5.660;2024-03-22T05:16:41;46.85;;;17.02;;
52494;SDS011;38405;53.212;5.660;2024-03-22T05:19:07;54.63;;;17.63;;
52494;SDS011;38405;53.212;5.660;2024-03-22T05:21:32;52.85;;;17.80;;
52494;SDS011;38405;53.212;5.660;2024-03-22T05:23:58;56.47;;;17.67;;
52494;SDS011;38405;53.212;5.660;2024-03-22T05:26:23;57.45;;;18.95;;
52494;SDS011;38405;53.212;5.660;2024-03-22T05:28:49;52.38;;;18.88;;
52494;SDS011;38405;53.212;5.660;2024-03-22T05:31:14;48.35;;;17.83;;
52494;SDS011;38405;53.212;5.660;2024-03-22T05:33:40;51.60;;;17.95;;
52494;SDS011;38405;53.212;5.660;2024-03-22T05:36:06;53.90;;;19.00;;
52494;SDS011;38405;53.212;5.660;2024-03-22T05:38:32;47.95;;;19.35;;
52494;SDS011;38405;53.212;5.660;2024-03-22T05:40:57;55.08;;;19.35;;
52494;SDS011;38405;53.212;5.660;2024-03-22T05:43:23;55.78;;;20.23;;
52494;SDS011;38405;53.212;5.660;2024-03-22T05:45:49;56.92;;;20.58;;
52494;SDS011;38405;53.212;5.660;2024-03-22T05:48:14;56.53;;;19.75;;
52494;SDS011;38405;53.212;5.660;2024-03-22T05:50:40;45.58;;;18.23;;
52494;SDS011;38405;53.212;5.660;2024-03-22T05:53:06;53.53;;;17.95;;
52494;SDS011;38405;53.212;5.660;2024-03-22T05:55:31;50.83;;;17.75;;
52494;SDS011;38405;53.212;5.660;2024-03-22T05:57:57;48.97;;;18.13;;
52494;SDS011;38405;53.212;5.660;2024-03-22T06:00:23;54.40;;;20.17;;
52494;SDS011;38405;53.212;5.660;2024-03-22T06:02:48;40.75;;;17.85;;
52494;SDS011;38405;53.212;5.660;2024-03-22T06:05:14;47.20;;;17.90;;
52494;SDS011;38405;53.212;5.660;2024-03-22T06:07:40;51.85;;;19.45;;
52494;SDS011;38405;53.212;5.660;2024-03-22T06:10:07;41.03;;;17.75;;
52494;SDS011;38405;53.212;5.660;2024-03-22T06:12:34;51.88;;;19.10;;
52494;SDS011;38405;53.212;5.660;2024-03-22T06:15:00;43.08;;;17.83;;
52494;SDS011;38405;53.212;5.660;2024-03-22T06:17:26;49.70;;;19.23;;
52494;SDS011;38405;53.212;5.660;2024-03-22T06:19:52;42.58;;;19.02;;
52494;SDS011;38405;53.212;5.660;2024-03-22T06:22:17;47.88;;;20.08;;
52494;SDS011;38405;53.212;5.660;2024-03-22T06:24:44;40.42;;;19.38;;
52494;SDS011;38405;53.212;5.660;2024-03-22T06:27:10;57.80;;;21.77;;
52494;SDS011;38405;53.212;5.660;2024-03-22T06:29:35;51.03;;;20.95;;
52494;SDS011;38405;53.212;5.660;2024-03-22T06:32:01;58.63;;;21.33;;
52494;SDS011;38405;53.212;5.660;2024-03-22T06:34:27;55.05;;;20.38;;
52494;SDS011;38405;53.212;5.660;2024-03-22T06:36:52;54.20;;;21.73;;
52494;SDS011;38405;53.212;5.660;2024-03-22T06:39:18;45.83;;;19.73;;
52494;SDS011;38405;53.212;5.660;2024-03-22T06:41:44;47.67;;;19.95;;
52494;SDS011;38405;53.212;5.660;2024-03-22T06:44:10;56.28;;;22.63;;
52494;SDS011;38405;53.212;5.660;2024-03-22T06:46:37;59.67;;;22.92;;
52494;SDS011;38405;53.212;5.660;2024-03-22T06:49:03;46.30;;;20.05;;
52494;SDS011;38405;53.212;5.660;2024-03-22T06:51:28;64.45;;;21.88;;
52494;SDS011;38405;53.212;5.660;2024-03-22T06:53:54;50.75;;;20.23;;
52494;SDS011;38405;53.212;5.660;2024-03-22T06:56:20;47.13;;;19.58;;
52494;SDS011;38405;53.212;5.660;2024-03-22T06:58:46;46.97;;;20.60;;
52494;SDS011;38405;53.212;5.660;2024-03-22T07:01:11;44.70;;;18.77;;
52494;SDS011;38405;53.212;5.660;2024-03-22T07:03:37;43.75;;;18.75;;
52494;SDS011;38405;53.212;5.660;2024-03-22T07:06:03;44.85;;;20.02;;
52494;SDS011;38405;53.212;5.660;2024-03-22T07:08:31;42.05;;;18.45;;
52494;SDS011;38405;53.212;5.660;2024-03-22T07:10:57;39.55;;;18.38;;
52494;SDS011;38405;53.212;5.660;2024-03-22T07:13:24;44.03;;;20.25;;
52494;SDS011;38405;53.212;5.660;2024-03-22T07:15:50;41.85;;;20.27;;
52494;SDS011;38405;53.212;5.660;2024-03-22T07:18:15;44.53;;;19.25;;
52494;SDS011;38405;53.212;5.660;2024-03-22T07:20:41;42.28;;;19.00;;
52494;SDS011;38405;53.212;5.660;2024-03-22T07:23:08;35.75;;;17.95;;
52494;SDS011;38405;53.212;5.660;2024-03-22T07:25:34;39.05;;;17.25;;
52494;SDS011;38405;53.212;5.660;2024-03-22T07:27:59;41.00;;;19.70;;
52494;SDS011;38405;53.212;5.660;2024-03-22T07:30:25;35.47;;;17.95;;
52494;SDS011;38405;53.212;5.660;2024-03-22T07:32:51;39.65;;;17.90;;
52494;SDS011;38405;53.212;5.660;2024-03-22T07:35:16;35.33;;;17.98;;
52494;SDS011;38405;53.212;5.660;2024-03-22T07:37:42;41.60;;;17.55;;
52494;SDS011;38405;53.212;5.660;2024-03-22T07:40:07;28.65;;;17.35;;
52494;SDS011;38405;53.212;5.660;2024-03-22T07:42:33;33.75;;;16.60;;
52494;SDS011;38405;53.212;5.660;2024-03-22T07:44:59;34.92;;;17.20;;
52494;SDS011;38405;53.212;5.660;2024-03-22T07:47:25;35.22;;;17.40;;
52494;SDS011;38405;53.212;5.660;2024-03-22T07:49:50;31.15;;;15.65;;
52494;SDS011;38405;53.212;5.660;2024-03-22T07:52:16;31.65;;;16.98;;
52494;SDS011;38405;53.212;5.660;2024-03-22T07:54:42;31.73;;;17.33;;
52494;SDS011;38405;53.212;5.660;2024-03-22T07:57:07;34.08;;;16.73;;
52494;SDS011;38405;53.212;5.660;2024-03-22T07:59:35;32.85;;;17.30;;
52494;SDS011;38405;53.212;5.660;2024-03-22T08:02:01;34.95;;;16.83;;
52494;SDS011;38405;53.212;5.660;2024-03-22T08:04:28;30.73;;;16.48;;
52494;SDS011;38405;53.212;5.660;2024-03-22T08:06:54;39.00;;;17.88;;
52494;SDS011;38405;53.212;5.660;2024-03-22T08:09:19;29.75;;;15.57;;
52494;SDS011;38405;53.212;5.660;2024-03-22T08:11:45;37.75;;;17.52;;
52494;SDS011;38405;53.212;5.660;2024-03-22T08:14:11;37.67;;;18.45;;
52494;SDS011;38405;53.212;5.660;2024-03-22T08:16:36;39.17;;;18.33;;
52494;SDS011;38405;53.212;5.660;2024-03-22T08:19:02;37.53;;;17.45;;
52494;SDS011;38405;53.212;5.660;2024-03-22T08:21:28;38.67;;;18.92;;
52494;SDS011;38405;53.212;5.660;2024-03-22T08:23:53;44.85;;;19.77;;
52494;SDS011;38405;53.212;5.660;2024-03-22T08:26:19;43.58;;;19.48;;
52494;SDS011;38405;53.212;5.660;2024-03-22T08:28:46;43.03;;;20.48;;
52494;SDS011;38405;53.212;5.660;2024-03-22T08:31:12;47.53;;;19.23;;
52494;SDS011;38405;53.212;5.660;2024-03-22T08:33:38;39.03;;;18.90;;
52494;SDS011;38405;53.212;5.660;2024-03-22T08:36:04;37.47;;;18.98;;
52494;SDS011;38405;53.212;5.660;2024-03-22T08:38:29;37.95;;;17.63;;
52494;SDS011;38405;53.212;5.660;2024-03-22T08:40:55;39.13;;;18.38;;
52494;SDS011;38405;53.212;5.660;2024-03-22T08:43:21;40.58;;;18.63;;
52494;SDS011;38405;53.212;5.660;2024-03-22T08:45:47;35.92;;;17.42;;
52494;SDS011;38405;53.212;5.660;2024-03-22T08:48:13;38.08;;;18.42;;
52494;SDS011;38405;53.212;5.660;2024-03-22T08:50:41;36.33;;;18.27;;
52494;SDS011;38405;53.212;5.660;2024-03-22T08:53:07;41.30;;;17.88;;
52494;SDS011;38405;53.212;5.660;2024-03-22T08:55:33;39.28;;;18.48;;
52494;SDS011;38405;53.212;5.660;2024-03-22T08:57:59;36.17;;;17.23;;
52494;SDS011;38405;53.212;5.660;2024-03-22T09:00:24;38.38;;;17.55;;
52494;SDS011;38405;53.212;5.660;2024-03-22T09:02:50;38.10;;;15.70;;
52494;SDS011;38405;53.212;5.660;2024-03-22T09:05:16;36.30;;;16.85;;
52494;SDS011;38405;53.212;5.660;2024-03-22T09:07:41;34.17;;;15.68;;
52494;SDS011;38405;53.212;5.660;2024-03-22T09:10:07;30.77;;;15.07;;
52494;SDS011;38405;53.212;5.660;2024-03-22T09:12:34;29.10;;;13.77;;
52494;SDS011;38405;53.212;5.660;2024-03-22T09:14:59;34.95;;;13.52;;
52494;SDS011;38405;53.212;5.660;2024-03-22T09:17:25;36.53;;;13.93;;
52494;SDS011;38405;53.212;5.660;2024-03-22T09:19:51;30.10;;;13.13;;
52494;SDS011;38405;53.212;5.660;2024-03-22T09:22:17;32.55;;;13.88;;
52494;SDS011;38405;53.212;5.660;2024-03-22T09:24:43;39.85;;;14.38;;
52494;SDS011;38405;53.212;5.660;2024-03-22T09:27:08;29.40;;;13.38;;
52494;SDS011;38405;53.212;5.660;2024-03-22T09:29:38;39.35;;;13.68;;
52494;SDS011;38405;53.212;5.660;2024-03-22T09:32:04;42.17;;;14.60;;
52494;SDS011;38405;53.212;5.660;2024-03-22T09:34:30;31.23;;;12.88;;
52494;SDS011;38405;53.212;5.660;2024-03-22T09:36:56;46.63;;;15.32;;
52494;SDS011;38405;53.212;5.660;2024-03-22T09:39:22;39.03;;;13.73;;
52494;SDS011;38405;53.212;5.660;2024-03-22T09:41:48;42.25;;;13.10;;
52494;SDS011;38405;53.212;5.660;2024-03-22T09:44:16;29.80;;;12.13;;
52494;SDS011;38405;53.212;5.660;2024-03-22T09:46:44;26.08;;;10.27;;
52494;SDS011;38405;53.212;5.660;2024-03-22T09:49:11;26.35;;;9.15;;
52494;SDS011;38405;53.212;5.660;2024-03-22T09:51:37;32.47;;;9.90;;
52494;SDS011;38405;53.212;5.660;2024-03-22T09:54:04;22.80;;;8.93;;
52494;SDS011;38405;53.212;5.660;2024-03-22T09:56:30;23.20;;;9.27;;
52494;SDS011;38405;53.212;5.660;2024-03-22T09:58:57;23.00;;;9.10;;
52494;SDS011;38405;53.212;5.660;2024-03-22T10:01:23;21.77;;;8.63;;
52494;SDS011;38405;53.212;5.660;2024-03-22T10:03:51;15.32;;;7.78;;
52494;SDS011;38405;53.212;5.660;2024-03-22T10:06:17;15.60;;;7.90;;
52494;SDS011;38405;53.212;5.660;2024-03-22T10:08:43;19.83;;;7.70;;
52494;SDS011;38405;53.212;5.660;2024-03-22T10:11:10;18.10;;;7.80;;
52494;SDS011;38405;53.212;5.660;2024-03-22T10:13:35;16.65;;;7.25;;
52494;SDS011;38405;53.212;5.660;2024-03-22T10:16:01;18.15;;;6.97;;
52494;SDS011;38405;53.212;5.660;2024-03-22T10:18:27;11.80;;;5.72;;
52494;SDS011;38405;53.212;5.660;2024-03-22T10:21:02;15.80;;;5.82;;
52494;SDS011;38405;53.212;5.660;2024-03-22T10:23:29;17.00;;;5.82;;
52494;SDS011;38405;53.212;5.660;2024-03-22T10:25:58;14.00;;;6.43;;
52494;SDS011;38405;53.212;5.660;2024-03-22T10:28:25;14.40;;;6.43;;
52494;SDS011;38405;53.212;5.660;2024-03-22T10:30:52;18.17;;;6.63;;
52494;SDS011;38405;53.212;5.660;2024-03-22T10:33:18;12.63;;;5.82;;
52494;SDS011;38405;53.212;5.660;2024-03-22T10:35:45;22.10;;;6.30;;
52494;SDS011;38405;53.212;5.660;2024-03-22T10:38:14;15.40;;;6.13;;
52494;SDS011;38405;53.212;5.660;2024-03-22T10:40:44;18.17;;;6.63;;
52494;SDS011;38405;53.212;5.660;2024-03-22T10:43:11;15.20;;;6.10;;
52494;SDS011;38405;53.212;5.660;2024-03-22T10:45:37;15.70;;;6.95;;
52494;SDS011;38405;53.212;5.660;2024-03-22T10:48:06;15.65;;;5.78;;
52494;SDS011;38405;53.212;5.660;2024-03-22T10:50:34;18.75;;;6.32;;
52494;SDS011;38405;53.212;5.660;2024-03-22T10:53:03;16.70;;;5.55;;
52494;SDS011;38405;53.212;5.660;2024-03-22T10:55:35;15.27;;;5.45;;
52494;SDS011;38405;53.212;5.660;2024-03-22T10:58:04;13.63;;;5.18;;
52494;SDS011;38405;53.212;5.660;2024-03-22T11:00:30;20.10;;;6.00;;
52494;SDS011;38405;53.212;5.660;2024-03-22T11:02:57;14.32;;;5.43;;
52494;SDS011;38405;53.212;5.660;2024-03-22T11:05:25;11.43;;;4.28;;
52494;SDS011;38405;53.212;5.660;2024-03-22T11:10:29;17.35;;;4.70;;
52494;SDS011;38405;53.212;5.660;2024-03-22T11:13:04;17.60;;;4.63;;
52494;SDS011;38405;53.212;5.660;2024-03-22T11:15:32;18.38;;;4.75;;
52494;SDS011;38405;53.212;5.660;2024-03-22T11:17:58;16.65;;;5.22;;
52494;SDS011;38405;53.212;5.660;2024-03-22T11:20:25;15.30;;;5.20;;
52494;SDS011;38405;53.212;5.660;2024-03-22T11:22:54;11.02;;;4.65;;
52494;SDS011;38405;53.212;5.660;2024-03-22T11:25:19;16.65;;;5.68;;
52494;SDS011;38405;53.212;5.660;2024-03-22T11:27:46;16.35;;;5.10;;
52494;SDS011;38405;53.212;5.660;2024-03-22T11:30:12;18.85;;;5.22;;
52494;SDS011;38405;53.212;5.660;2024-03-22T11:32:38;26.48;;;5.43;;
52494;SDS011;38405;53.212;5.660;2024-03-22T11:35:09;16.67;;;5.25;;
52494;SDS011;38405;53.212;5.660;2024-03-22T11:37:36;20.20;;;5.57;;
52494;SDS011;38405;53.212;5.660;2024-03-22T11:40:03;15.15;;;5.15;;
52494;SDS011;38405;53.212;5.660;2024-03-22T11:42:32;15.43;;;5.10;;
52494;SDS011;38405;53.212;5.660;2024-03-22T11:44:58;18.38;;;5.38;;
52494;SDS011;38405;53.212;5.660;2024-03-22T11:47:24;19.80;;;5.07;;
52494;SDS011;38405;53.212;5.660;2024-03-22T11:49:50;22.55;;;5.78;;
52494;SDS011;38405;53.212;5.660;2024-03-22T11:52:16;19.38;;;6.30;;
52494;SDS011;38405;53.212;5.660;2024-03-22T11:54:42;20.80;;;5.95;;
52494;SDS011;38405;53.212;5.660;2024-03-22T11:57:08;20.20;;;5.85;;
52494;SDS011;38405;53.212;5.660;2024-03-22T11:59:34;18.25;;;5.65;;
52494;SDS011;38405;53.212;5.660;2024-03-22T12:02:00;24.02;;;6.93;;
52494;SDS011;38405;53.212;5.660;2024-03-22T12:04:26;21.98;;;6.35;;
52494;SDS011;38405;53.212;5.660;2024-03-22T12:06:51;19.98;;;7.18;;
52494;SDS011;38405;53.212;5.660;2024-03-22T12:09:18;27.70;;;7.50;;
52494;SDS011;38405;53.212;5.660;2024-03-22T12:11:44;27.17;;;7.15;;
52494;SDS011;38405;53.212;5.660;2024-03-22T12:14:09;24.27;;;7.20;;
52494;SDS011;38405;53.212;5.660;2024-03-22T12:16:35;26.90;;;7.97;;
52494;SDS011;38405;53.212;5.660;2024-03-22T12:19:01;30.40;;;7.88;;
52494;SDS011;38405;53.212;5.660;2024-03-22T12:21:28;22.38;;;6.07;;
52494;SDS011;38405;53.212;5.660;2024-03-22T12:23:53;30.92;;;6.82;;
52494;SDS011;38405;53.212;5.660;2024-03-22T12:26:19;22.88;;;6.55;;
52494;SDS011;38405;53.212;5.660;2024-03-22T12:28:45;28.38;;;6.97;;
52494;SDS011;38405;53.212;5.660;2024-03-22T12:31:11;21.20;;;6.47;;
52494;SDS011;38405;53.212;5.660;2024-03-22T12:33:37;26.73;;;6.10;;
52494;SDS011;38405;53.212;5.660;2024-03-22T12:36:03;21.52;;;5.10;;
52494;SDS011;38405;53.212;5.660;2024-03-22T12:38:29;20.30;;;4.50;;
52494;SDS011;38405;53.212;5.660;2024-03-22T12:40:55;24.42;;;4.88;;
52494;SDS011;38405;53.212;5.660;2024-03-22T12:43:21;20.15;;;4.40;;
52494;SDS011;38405;53.212;5.660;2024-03-22T12:45:47;20.00;;;4.68;;
52494;SDS011;38405;53.212;5.660;2024-03-22T12:48:13;22.00;;;4.93;;
52494;SDS011;38405;53.212;5.660;2024-03-22T12:50:38;20.40;;;4.60;;
52494;SDS011;38405;53.212;5.660;2024-03-22T12:53:04;20.02;;;4.47;;
52494;SDS011;38405;53.212;5.660;2024-03-22T12:55:29;23.35;;;5.22;;
52494;SDS011;38405;53.212;5.660;2024-03-22T12:57:56;27.38;;;5.43;;
52494;SDS011;38405;53.212;5.660;2024-03-22T13:00:22;29.40;;;5.40;;
52494;SDS011;38405;53.212;5.660;2024-03-22T13:02:48;25.63;;;4.95;;
52494;SDS011;38405;53.212;5.660;2024-03-22T13:05:14;25.45;;;5.80;;
52494;SDS011;38405;53.212;5.660;2024-03-22T13:07:40;29.42;;;4.72;;
52494;SDS011;38405;53.212;5.660;2024-03-22T13:10:07;28.83;;;5.10;;
52494;SDS011;38405;53.212;5.660;2024-03-22T13:12:33;20.33;;;5.20;;
52494;SDS011;38405;53.212;5.660;2024-03-22T13:14:59;25.38;;;5.20;;
52494;SDS011;38405;53.212;5.660;2024-03-22T13:17:29;23.65;;;6.15;;
52494;SDS011;38405;53.212;5.660;2024-03-22T13:19:54;32.35;;;6.25;;
52494;SDS011;38405;53.212;5.660;2024-03-22T13:22:20;22.80;;;5.13;;
52494;SDS011;38405;53.212;5.660;2024-03-22T13:24:46;32.55;;;6.55;;
52494;SDS011;38405;53.212;5.660;2024-03-22T13:27:12;28.27;;;6.32;;
52494;SDS011;38405;53.212;5.660;2024-03-22T13:29:41;23.10;;;5.50;;
52494;SDS011;38405;53.212;5.660;2024-03-22T13:32:07;28.20;;;5.22;;
52494;SDS011;38405;53.212;5.660;2024-03-22T13:34:39;25.35;;;5.68;;
52494;SDS011;38405;53.212;5.660;2024-03-22T13:37:04;25.55;;;5.10;;
52494;SDS011;38405;53.212;5.660;2024-03-22T13:39:33;22.85;;;5.00;;
52494;SDS011;38405;53.212;5.660;2024-03-22T13:41:59;20.33;;;4.78;;
52494;SDS011;38405;53.212;5.660;2024-03-22T13:44:26;25.80;;;4.88;;
52494;SDS011;38405;53.212;5.660;2024-03-22T13:46:52;21.27;;;4.90;;
52494;SDS011;38405;53.212;5.660;2024-03-22T13:49:18;22.10;;;5.75;;
52494;SDS011;38405;53.212;5.660;2024-03-22T13:51:46;24.90;;;6.18;;
52494;SDS011;38405;53.212;5.660;2024-03-22T13:54:12;29.88;;;5.78;;
52494;SDS011;38405;53.212;5.660;2024-03-22T13:56:38;25.58;;;5.47;;
52494;SDS011;38405;53.212;5.660;2024-03-22T13:59:04;25.40;;;5.30;;
52494;SDS011;38405;53.212;5.660;2024-03-22T14:01:36;33.17;;;6.10;;
52494;SDS011;38405;53.212;5.660;2024-03-22T14:04:03;30.98;;;5.05;;
52494;SDS011;38405;53.212;5.660;2024-03-22T14:06:30;36.90;;;5.60;;
52494;SDS011;38405;53.212;5.660;2024-03-22T14:08:56;20.83;;;5.07;;
52494;SDS011;38405;53.212;5.660;2024-03-22T14:11:26;29.77;;;5.32;;
52494;SDS011;38405;53.212;5.660;2024-03-22T14:13:52;22.80;;;5.55;;
52494;SDS011;38405;53.212;5.660;2024-03-22T14:16:18;28.45;;;4.43;;
52494;SDS011;38405;53.212;5.660;2024-03-22T14:18:44;25.60;;;4.93;;
52494;SDS011;38405;53.212;5.660;2024-03-22T14:21:09;22.45;;;4.97;;